Time;durP1;ratioP1;P1;durP2;ratioP2;P2;SDS_P1;SDS_P2;PMS_P1;PMS_P2;Temp;Humidity;BMP_temperature;BMP_pressure;BME280_temperature;BME280_humidity;BME280_pressure;Samples;Min_cycle;Max_cycle;Signal;HPM_P1;HPM_P2
2021/05/20 00:01:34;;;;;;;1.73;1.50;;;;;;;;;;5116302;28;20189;-41
2021/05/20 00:04:00;;;;;;;1.80;1.58;;;;;;;;;;5098337;28;20185;-41
2021/05/20 00:06:27;;;;;;;1.55;1.42;;;;;;;;;;5116628;28;20169;-42
2021/05/20 00:08:53;;;;;;;1.50;1.40;;;;;;;;;;5114792;28;20173;-41
2021/05/20 00:11:19;;;;;;;1.40;1.30;;;;;;;;;;5115002;28;20173;-41
2021/05/20 00:13:45;;;;;;;1.40;1.30;;;;;;;;;;5116423;28;20181;-41
2021/05/20 00:16:11;;;;;;;1.40;1.30;;;;;;;;;;5116176;28;20226;-41
2021/05/20 00:18:37;;;;;;;2.17;1.35;;;;;;;;;;5115930;28;20173;-41
2021/05/20 00:21:04;;;;;;;1.58;1.27;;;;;;;;;;5115700;28;20500;-41
2021/05/20 00:23:30;;;;;;;1.40;1.27;;;;;;;;;;5114497;28;20191;-41
2021/05/20 00:25:56;;;;;;;1.40;1.30;;;;;;;;;;5115737;28;20188;-41
2021/05/20 00:28:22;;;;;;;1.40;1.30;;;;;;;;;;5115680;28;20208;-41
2021/05/20 00:30:48;;;;;;;1.60;1.30;;;;;;;;;;5115226;28;20460;-42
2021/05/20 00:33:14;;;;;;;1.40;1.30;;;;;;;;;;5115330;28;20257;-41
2021/05/20 00:35:41;;;;;;;1.33;1.10;;;;;;;;;;5116145;28;20165;-41
2021/05/20 00:38:10;;;;;;;1.38;1.23;;;;;;;;;;5115673;28;20256;-41
2021/05/20 00:40:36;;;;;;;1.40;1.30;;;;;;;;;;5113285;28;20187;-41
2021/05/20 00:43:02;;;;;;;1.40;1.30;;;;;;;;;;5115326;28;20184;-41
2021/05/20 00:45:28;;;;;;;1.20;1.10;;;;;;;;;;5115869;28;20180;-41
2021/05/20 00:47:54;;;;;;;1.35;1.25;;;;;;;;;;5115562;28;20197;-41
2021/05/20 00:50:20;;;;;;;1.45;1.23;;;;;;;;;;5115318;28;20183;-41
2021/05/20 00:52:46;;;;;;;1.17;1.00;;;;;;;;;;5114455;28;20580;-41
2021/05/20 00:55:13;;;;;;;1.50;1.33;;;;;;;;;;5115363;28;20185;-44
2021/05/20 00:57:40;;;;;;;1.42;1.33;;;;;;;;;;5113361;28;20205;-41
2021/05/20 01:00:06;;;;;;;1.30;1.20;;;;;;;;;;5105901;28;20254;-41
2021/05/20 01:02:32;;;;;;;1.17;1.08;;;;;;;;;;5114927;28;20556;-41
2021/05/20 01:04:58;;;;;;;1.45;1.20;;;;;;;;;;5115212;28;20263;-41
2021/05/20 01:07:24;;;;;;;1.15;1.00;;;;;;;;;;5100870;28;20279;-41
2021/05/20 01:09:50;;;;;;;1.23;1.13;;;;;;;;;;5115694;28;20176;-41
2021/05/20 01:12:16;;;;;;;1.30;1.20;;;;;;;;;;5114547;28;20180;-41
2021/05/20 01:14:44;;;;;;;1.45;1.00;;;;;;;;;;5108660;28;20183;-41
2021/05/20 01:17:10;;;;;;;1.17;1.08;;;;;;;;;;5114478;28;20177;-41
2021/05/20 01:19:37;;;;;;;1.40;1.30;;;;;;;;;;5115084;28;20212;-41
2021/05/20 01:22:03;;;;;;;1.20;1.10;;;;;;;;;;5114325;28;20195;-42
2021/05/20 01:24:29;;;;;;;1.33;1.20;;;;;;;;;;5115013;28;20197;-42
2021/05/20 01:26:56;;;;;;;1.35;1.00;;;;;;;;;;5111502;28;20247;-42
2021/05/20 01:29:22;;;;;;;1.27;1.13;;;;;;;;;;5107014;28;20189;-41
2021/05/20 01:31:48;;;;;;;1.70;1.08;;;;;;;;;;5114978;28;20176;-41
2021/05/20 01:34:14;;;;;;;1.45;1.10;;;;;;;;;;5100071;28;20173;-42
2021/05/20 01:36:40;;;;;;;0.82;0.82;;;;;;;;;;5114938;28;20173;-41
2021/05/20 01:39:06;;;;;;;0.80;0.80;;;;;;;;;;5114999;28;20165;-41
2021/05/20 01:41:32;;;;;;;1.00;1.00;;;;;;;;;;5105191;28;20523;-41
2021/05/20 01:43:58;;;;;;;1.30;1.20;;;;;;;;;;5114642;28;20204;-41
2021/05/20 01:46:24;;;;;;;1.33;1.20;;;;;;;;;;5114990;28;20209;-42
2021/05/20 01:48:53;;;;;;;0.88;0.85;;;;;;;;;;5111945;28;20236;-42
2021/05/20 01:51:20;;;;;;;0.98;0.93;;;;;;;;;;5112845;28;20211;-42
2021/05/20 01:53:47;;;;;;;1.23;1.00;;;;;;;;;;5106324;28;20169;-42
2021/05/20 01:56:17;;;;;;;1.02;0.93;;;;;;;;;;5113869;28;20181;-42
2021/05/20 01:58:44;;;;;;;0.90;0.90;;;;;;;;;;5094989;28;20173;-42
2021/05/20 02:01:10;;;;;;;0.80;0.80;;;;;;;;;;5114274;28;20216;-42
2021/05/20 02:03:36;;;;;;;0.88;0.88;;;;;;;;;;5113178;28;20564;-42
2021/05/20 02:06:03;;;;;;;1.80;1.02;;;;;;;;;;5117602;28;20177;-42
2021/05/20 02:08:29;;;;;;;0.75;0.75;;;;;;;;;;5118697;28;20204;-42
2021/05/20 02:10:56;;;;;;;0.85;0.82;;;;;;;;;;5117501;28;20169;-42
2021/05/20 02:13:22;;;;;;;1.02;0.93;;;;;;;;;;5113768;28;20262;-42
2021/05/20 02:15:48;;;;;;;1.67;1.10;;;;;;;;;;5112118;28;20219;-42
2021/05/20 02:18:14;;;;;;;1.15;0.85;;;;;;;;;;5118614;28;20876;-41
2021/05/20 02:20:40;;;;;;;1.00;0.80;;;;;;;;;;5117731;28;20169;-41
2021/05/20 02:23:06;;;;;;;0.98;0.98;;;;;;;;;;5115816;28;20346;-42
2021/05/20 02:25:33;;;;;;;0.90;0.90;;;;;;;;;;5116681;28;20230;-42
2021/05/20 02:27:59;;;;;;;0.93;0.93;;;;;;;;;;5117970;28;20213;-42
2021/05/20 02:30:26;;;;;;;0.88;0.82;;;;;;;;;;5117368;28;20260;-42
2021/05/20 02:32:52;;;;;;;0.70;0.70;;;;;;;;;;5116318;28;20222;-42
2021/05/20 02:35:19;;;;;;;1.50;0.93;;;;;;;;;;5118245;28;20170;-42
2021/05/20 02:37:45;;;;;;;0.60;0.60;;;;;;;;;;5117861;28;20180;-42
2021/05/20 02:40:11;;;;;;;1.25;1.02;;;;;;;;;;5117989;28;20237;-42
2021/05/20 02:42:38;;;;;;;0.82;0.82;;;;;;;;;;5116869;28;20221;-42
2021/05/20 02:45:05;;;;;;;0.70;0.70;;;;;;;;;;5099726;28;20190;-41
2021/05/20 02:47:31;;;;;;;2.08;0.88;;;;;;;;;;5115342;28;20196;-41
2021/05/20 02:49:57;;;;;;;0.80;0.80;;;;;;;;;;5118135;28;20429;-41
2021/05/20 02:52:23;;;;;;;1.95;0.80;;;;;;;;;;5117095;28;20227;-42
2021/05/20 02:54:49;;;;;;;0.75;0.75;;;;;;;;;;5116575;28;20169;-42
2021/05/20 02:57:15;;;;;;;0.88;0.82;;;;;;;;;;5117280;28;20193;-41
2021/05/20 02:59:41;;;;;;;0.90;0.90;;;;;;;;;;5117711;28;20272;-41
2021/05/20 03:02:08;;;;;;;0.80;0.80;;;;;;;;;;5106342;28;20232;-41
2021/05/20 03:04:35;;;;;;;1.00;1.00;;;;;;;;;;5117201;28;20192;-41
2021/05/20 03:07:01;;;;;;;0.80;0.80;;;;;;;;;;5117588;28;20506;-41
2021/05/20 03:09:27;;;;;;;0.77;0.77;;;;;;;;;;5117301;28;20623;-41
2021/05/20 03:11:56;;;;;;;0.82;0.82;;;;;;;;;;5116645;28;20248;-41
2021/05/20 03:14:22;;;;;;;0.82;0.82;;;;;;;;;;5105735;28;20576;-41
2021/05/20 03:16:48;;;;;;;0.70;0.70;;;;;;;;;;5111558;28;20210;-41
2021/05/20 03:19:14;;;;;;;0.75;0.70;;;;;;;;;;5117699;28;20251;-41
2021/05/20 03:21:40;;;;;;;1.25;0.60;;;;;;;;;;5116381;28;20564;-41
2021/05/20 03:24:06;;;;;;;0.55;0.55;;;;;;;;;;5107804;28;20189;-41
2021/05/20 03:26:32;;;;;;;0.57;0.57;;;;;;;;;;5115808;28;20180;-41
2021/05/20 03:28:59;;;;;;;0.75;0.75;;;;;;;;;;5117326;28;20221;-41
2021/05/20 03:31:25;;;;;;;0.73;0.70;;;;;;;;;;5116407;28;20485;-41
2021/05/20 03:33:51;;;;;;;1.00;0.85;;;;;;;;;;5116624;28;20249;-41
2021/05/20 03:36:17;;;;;;;0.50;0.50;;;;;;;;;;5116968;28;20282;-41
2021/05/20 03:38:42;;;;;;;0.70;0.70;;;;;;;;;;5116553;28;20460;-42
2021/05/20 03:41:08;;;;;;;1.02;0.70;;;;;;;;;;5115036;28;20184;-42
2021/05/20 03:43:36;;;;;;;0.80;0.80;;;;;;;;;;5110447;28;20526;-42
2021/05/20 03:46:02;;;;;;;0.60;0.60;;;;;;;;;;5115773;28;20177;-41
2021/05/20 03:48:29;;;;;;;0.70;0.70;;;;;;;;;;5116294;28;20476;-41
2021/05/20 03:50:55;;;;;;;0.80;0.80;;;;;;;;;;5115892;28;20169;-41
2021/05/20 03:53:21;;;;;;;0.70;0.70;;;;;;;;;;5108839;28;20254;-42
2021/05/20 03:55:48;;;;;;;0.70;0.70;;;;;;;;;;5116200;28;20230;-41
2021/05/20 03:58:14;;;;;;;0.73;0.60;;;;;;;;;;5116487;28;20181;-41
2021/05/20 04:00:41;;;;;;;0.75;0.75;;;;;;;;;;5115753;28;20274;-42
2021/05/20 04:03:07;;;;;;;0.98;0.75;;;;;;;;;;5116230;28;20212;-42
2021/05/20 04:05:33;;;;;;;1.25;0.93;;;;;;;;;;5116623;28;20189;-41
2021/05/20 04:07:59;;;;;;;0.70;0.70;;;;;;;;;;5116314;28;20491;-41
2021/05/20 04:10:25;;;;;;;1.08;0.90;;;;;;;;;;5116095;28;20222;-41
2021/05/20 04:12:51;;;;;;;1.70;1.00;;;;;;;;;;5104555;28;20189;-41
2021/05/20 04:15:17;;;;;;;7.72;2.78;;;;;;;;;;5115528;28;20188;-41
2021/05/20 04:17:43;;;;;;;31.63;8.48;;;;;;;;;;5115961;28;20191;-41
2021/05/20 04:20:10;;;;;;;55.78;12.10;;;;;;;;;;5116258;28;20654;-41
2021/05/20 04:22:36;;;;;;;59.38;14.38;;;;;;;;;;5114541;28;20196;-41
2021/05/20 04:25:02;;;;;;;77.68;18.23;;;;;;;;;;5115813;28;20260;-41
2021/05/20 04:27:28;;;;;;;95.40;21.73;;;;;;;;;;5115038;28;20246;-41
2021/05/20 04:29:56;;;;;;;89.32;19.48;;;;;;;;;;5116254;28;20173;-42
2021/05/20 04:32:21;;;;;;;85.85;22.42;;;;;;;;;;5108958;28;20256;-42
2021/05/20 04:34:47;;;;;;;71.25;20.13;;;;;;;;;;5095353;28;20285;-42
2021/05/20 04:37:13;;;;;;;94.35;23.48;;;;;;;;;;5105943;28;20188;-42
2021/05/20 04:39:39;;;;;;;83.28;21.52;;;;;;;;;;5116074;28;20177;-41
2021/05/20 04:42:05;;;;;;;84.47;20.88;;;;;;;;;;5113919;28;20567;-41
2021/05/20 04:44:32;;;;;;;78.15;20.40;;;;;;;;;;5102788;28;20174;-41
2021/05/20 04:46:58;;;;;;;85.35;20.90;;;;;;;;;;5095556;28;20193;-41
2021/05/20 04:49:24;;;;;;;67.13;19.15;;;;;;;;;;5115503;28;20192;-41
2021/05/20 04:51:50;;;;;;;75.00;19.10;;;;;;;;;;5114087;28;20178;-43
2021/05/20 04:54:16;;;;;;;62.25;18.50;;;;;;;;;;5115290;28;20173;-41
2021/05/20 04:56:42;;;;;;;66.88;18.73;;;;;;;;;;5115400;28;20172;-41
2021/05/20 04:59:08;;;;;;;57.08;17.10;;;;;;;;;;5114706;28;20373;-41
2021/05/20 05:01:34;;;;;;;58.35;17.23;;;;;;;;;;5113298;28;20234;-41
2021/05/20 05:04:00;;;;;;;59.83;17.02;;;;;;;;;;5115385;28;20165;-42
2021/05/20 05:06:26;;;;;;;51.35;15.73;;;;;;;;;;5114799;28;20181;-41
2021/05/20 05:08:52;;;;;;;45.75;15.23;;;;;;;;;;5115304;28;20258;-41
2021/05/20 05:11:19;;;;;;;49.88;14.25;;;;;;;;;;5113826;28;20237;-42
2021/05/20 05:13:44;;;;;;;43.13;13.13;;;;;;;;;;5115525;28;20596;-42
2021/05/20 05:16:10;;;;;;;43.85;13.48;;;;;;;;;;5115467;28;20275;-42
2021/05/20 05:18:38;;;;;;;47.38;13.25;;;;;;;;;;5115206;28;20177;-41
2021/05/20 05:21:04;;;;;;;39.15;13.20;;;;;;;;;;5104495;28;20192;-41
2021/05/20 05:23:30;;;;;;;35.05;12.00;;;;;;;;;;5115233;28;20273;-41
2021/05/20 05:25:56;;;;;;;35.78;11.35;;;;;;;;;;5115337;28;20181;-41
2021/05/20 05:28:22;;;;;;;32.60;11.23;;;;;;;;;;5115132;28;20596;-41
2021/05/20 05:30:48;;;;;;;32.92;10.82;;;;;;;;;;5108985;28;20188;-42
2021/05/20 05:33:15;;;;;;;33.75;11.52;;;;;;;;;;5094910;28;20217;-42
2021/05/20 05:35:41;;;;;;;29.58;9.60;;;;;;;;;;5104890;28;20253;-42
2021/05/20 05:38:07;;;;;;;28.42;9.40;;;;;;;;;;5101988;28;20200;-42
2021/05/20 05:40:33;;;;;;;22.08;8.55;;;;;;;;;;5118193;28;20200;-42
2021/05/20 05:42:59;;;;;;;28.70;9.55;;;;;;;;;;5119086;28;20443;-41
2021/05/20 05:45:25;;;;;;;24.92;8.18;;;;;;;;;;5111803;28;20466;-41
2021/05/20 05:47:51;;;;;;;18.33;7.95;;;;;;;;;;5105795;28;20208;-41
2021/05/20 05:50:18;;;;;;;22.70;7.60;;;;;;;;;;5115929;28;20180;-41
2021/05/20 05:52:44;;;;;;;24.75;7.80;;;;;;;;;;5116311;28;20926;-41
2021/05/20 05:55:10;;;;;;;21.98;7.35;;;;;;;;;;5119584;28;20560;-42
2021/05/20 05:57:36;;;;;;;20.85;6.85;;;;;;;;;;5118895;28;20306;-42
2021/05/20 06:00:04;;;;;;;17.48;6.70;;;;;;;;;;5111050;28;20199;-42
2021/05/20 06:02:32;;;;;;;17.85;6.20;;;;;;;;;;5116630;28;20547;-42
2021/05/20 06:04:58;;;;;;;15.85;5.63;;;;;;;;;;5114030;28;20169;-42
2021/05/20 06:07:24;;;;;;;16.67;6.28;;;;;;;;;;5117898;28;20215;-42
2021/05/20 06:09:50;;;;;;;15.13;5.70;;;;;;;;;;5113768;28;20181;-42
2021/05/20 06:12:16;;;;;;;13.63;5.47;;;;;;;;;;5101438;28;20492;-42
2021/05/20 06:14:43;;;;;;;11.32;5.15;;;;;;;;;;5098382;28;20173;-42
2021/05/20 06:17:09;;;;;;;13.30;5.03;;;;;;;;;;5098248;28;20760;-42
2021/05/20 06:19:35;;;;;;;14.20;4.85;;;;;;;;;;5098954;28;20200;-43
2021/05/20 06:22:01;;;;;;;16.98;5.47;;;;;;;;;;5097797;28;20446;-41
2021/05/20 06:24:27;;;;;;;21.83;7.22;;;;;;;;;;5106939;28;20238;-41
2021/05/20 06:26:53;;;;;;;21.95;6.35;;;;;;;;;;5117628;28;20438;-41
2021/05/20 06:29:19;;;;;;;24.27;6.50;;;;;;;;;;5112137;28;20182;-41
2021/05/20 06:31:45;;;;;;;24.80;7.30;;;;;;;;;;5097457;28;20280;-41
2021/05/20 06:34:11;;;;;;;21.10;7.38;;;;;;;;;;5098012;28;20173;-41
2021/05/20 06:36:37;;;;;;;22.30;6.43;;;;;;;;;;5107982;28;20449;-41
2021/05/20 06:39:05;;;;;;;17.45;6.53;;;;;;;;;;5115301;28;20642;-41
2021/05/20 06:41:31;;;;;;;21.20;6.18;;;;;;;;;;5101316;28;20241;-41
2021/05/20 06:43:57;;;;;;;16.90;5.45;;;;;;;;;;5116818;28;20263;-41
2021/05/20 06:46:23;;;;;;;17.00;5.32;;;;;;;;;;5116557;28;20192;-41
2021/05/20 06:48:49;;;;;;;15.70;5.45;;;;;;;;;;5117563;28;20189;-41
2021/05/20 06:51:15;;;;;;;15.38;5.38;;;;;;;;;;5116634;28;20614;-41
2021/05/20 06:53:41;;;;;;;14.30;5.10;;;;;;;;;;5117654;28;20252;-41
2021/05/20 06:56:15;;;;;;;13.77;4.85;;;;;;;;;;5118008;28;20169;-41
2021/05/20 07:01:25;;;;;;;14.15;4.72;;;;;;;;;;5107023;28;20192;-41
2021/05/20 07:03:51;;;;;;;12.20;4.53;;;;;;;;;;5117809;28;20519;-41
2021/05/20 07:06:18;;;;;;;12.68;5.03;;;;;;;;;;5117626;28;20188;-41
2021/05/20 07:08:44;;;;;;;15.40;5.07;;;;;;;;;;5110520;28;20215;-41
2021/05/20 07:11:10;;;;;;;10.82;4.60;;;;;;;;;;5116223;28;20177;-42
2021/05/20 07:13:36;;;;;;;15.93;4.63;;;;;;;;;;5117695;28;20223;-41
2021/05/20 07:16:02;;;;;;;11.80;4.00;;;;;;;;;;5115341;28;20200;-42
2021/05/20 07:18:28;;;;;;;10.70;4.80;;;;;;;;;;5107441;28;20177;-41
2021/05/20 07:20:55;;;;;;;16.83;4.93;;;;;;;;;;5115528;28;20453;-41
2021/05/20 07:23:21;;;;;;;10.48;4.20;;;;;;;;;;5115843;28;20535;-41
2021/05/20 07:25:47;;;;;;;12.43;5.05;;;;;;;;;;5098963;28;20193;-42
2021/05/20 07:28:13;;;;;;;9.82;4.00;;;;;;;;;;5096706;28;20206;-41
2021/05/20 07:30:39;;;;;;;8.77;3.83;;;;;;;;;;5096446;28;20225;-41
2021/05/20 07:33:05;;;;;;;8.00;3.97;;;;;;;;;;5096853;28;20193;-42
2021/05/20 07:35:31;;;;;;;10.68;3.53;;;;;;;;;;5110607;28;20181;-41
2021/05/20 07:37:57;;;;;;;10.40;4.07;;;;;;;;;;5117308;28;20165;-41
2021/05/20 07:40:23;;;;;;;12.10;4.43;;;;;;;;;;5116556;28;20181;-41
2021/05/20 07:42:50;;;;;;;9.60;4.35;;;;;;;;;;5116780;28;20175;-41
2021/05/20 07:45:16;;;;;;;9.60;4.18;;;;;;;;;;5105691;28;20269;-41
2021/05/20 07:47:43;;;;;;;9.25;3.83;;;;;;;;;;5084664;28;20607;-41
2021/05/20 07:50:09;;;;;;;9.02;3.47;;;;;;;;;;5117078;28;20169;-41
2021/05/20 07:52:36;;;;;;;9.88;3.97;;;;;;;;;;5116196;28;20181;-41
2021/05/20 07:55:02;;;;;;;8.07;3.95;;;;;;;;;;5109326;28;20174;-41
2021/05/20 07:57:28;;;;;;;9.80;4.32;;;;;;;;;;5096472;28;20181;-41
2021/05/20 07:59:54;;;;;;;8.20;3.47;;;;;;;;;;5096504;28;20170;-41
2021/05/20 08:04:58;;;;;;;7.88;3.03;;;;;;;;;;5103601;28;20675;-41
2021/05/20 08:12:36;;;;;;;7.30;3.38;;;;;;;;;;5115830;28;20173;-41
2021/05/20 08:15:02;;;;;;;7.03;3.05;;;;;;;;;;5107543;28;20181;-41
2021/05/20 08:17:28;;;;;;;7.05;3.28;;;;;;;;;;5096133;28;20197;-41
2021/05/20 08:19:54;;;;;;;8.07;2.75;;;;;;;;;;5095764;28;20201;-41
2021/05/20 08:22:20;;;;;;;8.35;3.38;;;;;;;;;;5095313;28;20194;-41
2021/05/20 08:24:53;;;;;;;12.00;3.45;;;;;;;;;;5092272;28;20529;-42
2021/05/20 08:27:20;;;;;;;6.50;2.92;;;;;;;;;;5092584;28;20504;-41
2021/05/20 08:29:46;;;;;;;9.80;3.03;;;;;;;;;;5092143;28;20215;-41
2021/05/20 08:32:12;;;;;;;11.30;4.00;;;;;;;;;;5091759;28;20541;-41
2021/05/20 08:34:39;;;;;;;10.07;3.63;;;;;;;;;;5091840;28;20174;-41
2021/05/20 08:37:06;;;;;;;8.60;3.38;;;;;;;;;;5091979;28;20180;-41
2021/05/20 08:39:32;;;;;;;10.18;3.28;;;;;;;;;;5092213;28;20714;-41
2021/05/20 08:41:58;;;;;;;8.70;3.97;;;;;;;;;;5091579;28;20170;-41
2021/05/20 08:44:28;;;;;;;8.25;2.90;;;;;;;;;;5091778;28;20229;-41
2021/05/20 08:46:56;;;;;;;7.82;3.00;;;;;;;;;;5091753;28;20213;-41
2021/05/20 08:49:22;;;;;;;7.43;3.28;;;;;;;;;;5091113;28;20166;-41
2021/05/20 08:51:49;;;;;;;9.13;2.90;;;;;;;;;;5090781;28;20284;-41
2021/05/20 08:54:16;;;;;;;6.68;3.13;;;;;;;;;;5090816;28;20201;-41
2021/05/20 08:56:45;;;;;;;8.23;3.35;;;;;;;;;;5091224;28;20200;-41
2021/05/20 08:59:12;;;;;;;8.10;3.22;;;;;;;;;;5091828;28;20162;-41
2021/05/20 09:01:45;;;;;;;5.13;2.40;;;;;;;;;;5090869;28;20166;-41
2021/05/20 09:04:11;;;;;;;8.68;2.97;;;;;;;;;;5091378;28;20239;-43
2021/05/20 09:06:39;;;;;;;6.47;2.88;;;;;;;;;;5091159;28;20174;-43
2021/05/20 09:09:15;;;;;;;7.15;2.60;;;;;;;;;;5090515;28;20216;-43
2021/05/20 09:12:11;;;;;;;7.85;2.60;;;;;;;;;;5090397;28;20183;-43
2021/05/20 09:14:40;;;;;;;7.53;2.58;;;;;;;;;;5059905;28;20212;-43
2021/05/20 09:17:17;;;;;;;5.70;2.50;;;;;;;;;;5091412;28;20176;-43
2021/05/20 09:19:45;;;;;;;5.60;2.50;;;;;;;;;;5091406;28;20604;-43
2021/05/20 09:22:13;;;;;;;5.53;2.40;;;;;;;;;;5089572;28;20575;-43
2021/05/20 09:24:50;;;;;;;6.30;2.60;;;;;;;;;;5079316;28;20210;-43
2021/05/20 09:27:30;;;;;;;4.50;2.67;;;;;;;;;;5091315;28;20185;-43
2021/05/20 09:30:06;;;;;;;5.22;2.55;;;;;;;;;;5073362;28;20538;-44
2021/05/20 09:32:36;;;;;;;6.18;2.40;;;;;;;;;;5082313;28;20181;-44
2021/05/20 09:35:02;;;;;;;5.47;2.33;;;;;;;;;;5081380;28;20424;-44
2021/05/20 09:37:28;;;;;;;3.97;2.20;;;;;;;;;;5061644;28;20171;-44
2021/05/20 09:40:02;;;;;;;4.68;2.33;;;;;;;;;;5069113;28;20271;-44
2021/05/20 09:42:32;;;;;;;4.63;2.17;;;;;;;;;;5068286;28;20461;-43
2021/05/20 09:45:11;;;;;;;3.65;1.90;;;;;;;;;;5076793;28;20193;-43
2021/05/20 09:47:37;;;;;;;5.35;2.20;;;;;;;;;;5077351;28;20534;-43
2021/05/20 09:50:07;;;;;;;6.43;2.67;;;;;;;;;;5077515;28;20186;-43
2021/05/20 09:52:34;;;;;;;2.85;1.75;;;;;;;;;;5062771;28;20171;-43
2021/05/20 09:55:00;;;;;;;3.92;1.88;;;;;;;;;;5072117;28;20179;-43
2021/05/20 09:57:34;;;;;;;4.18;2.22;;;;;;;;;;5077319;28;20592;-43
2021/05/20 10:00:09;;;;;;;3.45;1.90;;;;;;;;;;5076692;28;20201;-43
2021/05/20 10:02:35;;;;;;;3.00;1.90;;;;;;;;;;5074257;28;20580;-43
2021/05/20 10:05:20;;;;;;;3.67;2.00;;;;;;;;;;5076391;28;20182;-43
2021/05/20 10:07:46;;;;;;;3.95;2.30;;;;;;;;;;5065653;28;20450;-44
2021/05/20 10:10:13;;;;;;;3.97;2.08;;;;;;;;;;5064885;28;20569;-44
2021/05/20 10:12:39;;;;;;;4.25;1.98;;;;;;;;;;5068482;28;20484;-44
2021/05/20 10:15:07;;;;;;;3.35;1.95;;;;;;;;;;5076278;28;20431;-44
2021/05/20 10:17:34;;;;;;;3.03;2.10;;;;;;;;;;5076698;28;20175;-44
2021/05/20 10:20:01;;;;;;;3.05;1.95;;;;;;;;;;5076977;28;20170;-44
2021/05/20 10:22:28;;;;;;;3.25;2.05;;;;;;;;;;5072311;28;20451;-44
2021/05/20 10:24:55;;;;;;;3.25;1.77;;;;;;;;;;5065066;28;20174;-44
2021/05/20 10:27:21;;;;;;;4.97;2.28;;;;;;;;;;5076796;28;20181;-44
2021/05/20 10:29:47;;;;;;;2.60;1.63;;;;;;;;;;5075032;28;20170;-44
2021/05/20 10:32:16;;;;;;;2.35;1.50;;;;;;;;;;5056063;28;20182;-44
2021/05/20 10:35:02;;;;;;;3.40;1.70;;;;;;;;;;5059434;28;20880;-44
2021/05/20 10:37:37;;;;;;;3.25;2.03;;;;;;;;;;5041796;28;20614;-44
2021/05/20 10:40:23;;;;;;;3.92;1.70;;;;;;;;;;5067895;28;20228;-44
2021/05/20 10:43:01;;;;;;;4.18;1.73;;;;;;;;;;5047970;28;20336;-44
2021/05/20 10:45:27;;;;;;;3.17;1.92;;;;;;;;;;5047118;28;20206;-44
2021/05/20 10:48:07;;;;;;;3.95;1.83;;;;;;;;;;5059889;28;20236;-44
2021/05/20 10:50:54;;;;;;;3.33;1.60;;;;;;;;;;5069135;28;20201;-44
2021/05/20 10:53:38;;;;;;;3.67;1.70;;;;;;;;;;5061405;28;20202;-42
2021/05/20 10:56:04;;;;;;;2.92;1.70;;;;;;;;;;5074070;28;20189;-41
2021/05/20 10:58:31;;;;;;;2.70;1.50;;;;;;;;;;5071755;28;20535;-41
2021/05/20 11:00:57;;;;;;;3.30;1.83;;;;;;;;;;5058374;28;20550;-42
2021/05/20 11:03:42;;;;;;;2.22;1.50;;;;;;;;;;5072362;28;20280;-41
2021/05/20 11:06:08;;;;;;;2.50;1.30;;;;;;;;;;5056846;28;20542;-41
2021/05/20 11:08:52;;;;;;;3.20;1.50;;;;;;;;;;5068333;28;20471;-41
2021/05/20 11:11:30;;;;;;;1.77;1.23;;;;;;;;;;5055306;28;20189;-41
2021/05/20 11:13:56;;;;;;;1.80;1.20;;;;;;;;;;5064838;28;20201;-41
2021/05/20 11:16:32;;;;;;;3.10;1.52;;;;;;;;;;5075048;28;20218;-41
2021/05/20 11:19:21;;;;;;;1.58;1.20;;;;;;;;;;5070070;28;20261;-41
2021/05/20 11:22:09;;;;;;;1.80;1.30;;;;;;;;;;5057124;28;20179;-42
2021/05/20 11:24:40;;;;;;;2.92;1.38;;;;;;;;;;5066566;28;20248;-44
2021/05/20 11:27:11;;;;;;;2.17;1.60;;;;;;;;;;5059107;28;20559;-44
2021/05/20 11:29:38;;;;;;;3.08;1.20;;;;;;;;;;5055304;28;20172;-44
2021/05/20 11:32:25;;;;;;;2.20;1.30;;;;;;;;;;5054976;28;20167;-44
2021/05/20 11:37:27;;;;;;;2.17;1.35;;;;;;;;;;5058509;28;20183;-44
2021/05/20 11:39:53;;;;;;;2.20;1.40;;;;;;;;;;5056474;28;20183;-44
2021/05/20 11:42:23;;;;;;;3.53;1.58;;;;;;;;;;5054641;28;20601;-44
2021/05/20 11:44:49;;;;;;;2.83;1.35;;;;;;;;;;5055299;28;20289;-44
2021/05/20 11:47:15;;;;;;;2.88;1.45;;;;;;;;;;5058738;28;20189;-44
2021/05/20 11:49:45;;;;;;;1.67;1.25;;;;;;;;;;5065330;28;20187;-44
2021/05/20 11:52:11;;;;;;;1.30;1.20;;;;;;;;;;5072513;28;20186;-44
2021/05/20 11:54:39;;;;;;;2.60;1.40;;;;;;;;;;5063886;28;20178;-44
2021/05/20 11:57:07;;;;;;;1.90;1.30;;;;;;;;;;5059709;28;20193;-44
2021/05/20 11:59:39;;;;;;;1.35;1.10;;;;;;;;;;5074738;28;20254;-44
2021/05/20 12:02:07;;;;;;;2.08;1.27;;;;;;;;;;5073299;28;20178;-44
2021/05/20 12:04:33;;;;;;;1.65;1.25;;;;;;;;;;5036921;28;20214;-44
2021/05/20 12:07:01;;;;;;;1.05;1.02;;;;;;;;;;5054454;28;20183;-43
2021/05/20 12:09:27;;;;;;;2.08;1.20;;;;;;;;;;5064725;28;20217;-43
2021/05/20 12:11:53;;;;;;;1.85;1.13;;;;;;;;;;5072572;28;20198;-43
2021/05/20 12:14:29;;;;;;;1.60;1.00;;;;;;;;;;5054906;28;20175;-43
2021/05/20 12:17:11;;;;;;;1.88;1.30;;;;;;;;;;5058545;28;20178;-43
2021/05/20 12:19:38;;;;;;;1.23;1.13;;;;;;;;;;5057641;28;20186;-43
2021/05/20 12:22:07;;;;;;;1.52;1.17;;;;;;;;;;5058045;28;20194;-43
2021/05/20 12:24:35;;;;;;;1.15;1.10;;;;;;;;;;5066393;28;20237;-43
2021/05/20 12:27:10;;;;;;;1.38;1.05;;;;;;;;;;5070811;28;20179;-44
2021/05/20 12:29:37;;;;;;;1.60;1.10;;;;;;;;;;5068937;28;20238;-44
2021/05/20 12:32:03;;;;;;;1.10;1.00;;;;;;;;;;5069772;28;20178;-44
2021/05/20 12:34:29;;;;;;;2.15;1.08;;;;;;;;;;5074773;28;20619;-44
2021/05/20 12:37:02;;;;;;;1.40;1.10;;;;;;;;;;5061941;28;20621;-44
2021/05/20 12:39:28;;;;;;;1.83;1.20;;;;;;;;;;5074918;28;20170;-44
2021/05/20 12:41:54;;;;;;;1.10;1.00;;;;;;;;;;5074394;28;20593;-44
2021/05/20 12:44:20;;;;;;;1.63;1.00;;;;;;;;;;5073962;28;20198;-44
2021/05/20 12:46:46;;;;;;;1.75;0.90;;;;;;;;;;5060010;28;20924;-44
2021/05/20 12:49:19;;;;;;;1.60;1.00;;;;;;;;;;5074810;28;20171;-44
2021/05/20 12:51:55;;;;;;;1.95;1.10;;;;;;;;;;5060698;28;20560;-44
2021/05/20 12:54:25;;;;;;;0.77;0.77;;;;;;;;;;5074818;28;20581;-44
2021/05/20 12:57:01;;;;;;;1.67;0.80;;;;;;;;;;5073299;28;20445;-44
2021/05/20 12:59:36;;;;;;;1.45;1.00;;;;;;;;;;5073857;28;20174;-44
2021/05/20 13:02:07;;;;;;;2.88;1.00;;;;;;;;;;5064861;28;20286;-44
2021/05/20 13:04:33;;;;;;;1.55;0.98;;;;;;;;;;5060295;28;20557;-44
2021/05/20 13:06:59;;;;;;;1.67;0.93;;;;;;;;;;5054539;28;20604;-44
2021/05/20 13:09:44;;;;;;;1.92;0.88;;;;;;;;;;5056592;28;20241;-44
2021/05/20 13:15:09;;;;;;;1.38;0.90;;;;;;;;;;5077147;28;20178;-44
2021/05/20 13:22:58;;;;;;;1.95;0.90;;;;;;;;;;5076321;28;20222;-44
2021/05/20 13:25:24;;;;;;;1.70;0.70;;;;;;;;;;5066666;28;20175;-44
2021/05/20 13:27:51;;;;;;;1.33;0.95;;;;;;;;;;5066722;28;20257;-44
2021/05/20 13:30:24;;;;;;;1.42;0.90;;;;;;;;;;5062664;28;20193;-44
2021/05/20 13:32:53;;;;;;;2.95;0.93;;;;;;;;;;5062096;28;20172;-44
2021/05/20 13:35:19;;;;;;;1.95;1.02;;;;;;;;;;5057491;28;20167;-44
2021/05/20 13:37:45;;;;;;;1.13;1.00;;;;;;;;;;5059186;28;20221;-44
2021/05/20 13:40:18;;;;;;;0.65;0.65;;;;;;;;;;5057915;28;20205;-44
2021/05/20 13:42:45;;;;;;;1.23;0.90;;;;;;;;;;5072655;28;20213;-43
2021/05/20 13:45:11;;;;;;;1.38;0.90;;;;;;;;;;5057478;28;20588;-43
2021/05/20 13:47:37;;;;;;;2.53;0.90;;;;;;;;;;5068629;28;20175;-43
2021/05/20 13:50:04;;;;;;;1.58;0.90;;;;;;;;;;5066270;28;20427;-44
2021/05/20 13:52:33;;;;;;;1.45;0.80;;;;;;;;;;5043796;28;20179;-44
2021/05/20 13:54:59;;;;;;;0.80;0.80;;;;;;;;;;5057423;28;20179;-44
2021/05/20 13:57:25;;;;;;;1.88;0.80;;;;;;;;;;5056925;28;20186;-44
2021/05/20 13:59:51;;;;;;;2.22;0.80;;;;;;;;;;5059032;28;20550;-44
2021/05/20 14:02:21;;;;;;;1.30;1.10;;;;;;;;;;5068397;28;20200;-44
2021/05/20 14:04:47;;;;;;;0.65;0.65;;;;;;;;;;5067081;28;20326;-44
2021/05/20 14:07:17;;;;;;;0.80;0.80;;;;;;;;;;5057047;28;20178;-44
2021/05/20 14:09:46;;;;;;;1.25;0.73;;;;;;;;;;5072948;28;20178;-44
2021/05/20 14:12:14;;;;;;;1.23;0.90;;;;;;;;;;5062238;28;20171;-44
2021/05/20 14:14:40;;;;;;;1.27;0.70;;;;;;;;;;5064456;28;20198;-44
2021/05/20 14:17:06;;;;;;;0.80;0.80;;;;;;;;;;5068523;28;20233;-44
2021/05/20 14:19:34;;;;;;;1.23;0.65;;;;;;;;;;5056843;28;20167;-44
2021/05/20 14:22:01;;;;;;;1.27;0.60;;;;;;;;;;5072803;28;20239;-44
2021/05/20 14:24:27;;;;;;;0.82;0.82;;;;;;;;;;5066747;28;20202;-44
2021/05/20 14:26:54;;;;;;;0.63;0.63;;;;;;;;;;5073067;28;20261;-44
2021/05/20 14:29:20;;;;;;;1.35;0.90;;;;;;;;;;5061181;28;20210;-44
2021/05/20 14:31:47;;;;;;;1.35;0.70;;;;;;;;;;5062140;28;20588;-44
2021/05/20 14:34:15;;;;;;;1.70;0.88;;;;;;;;;;5073151;28;20264;-44
2021/05/20 14:36:41;;;;;;;2.10;0.90;;;;;;;;;;5076662;28;20162;-44
2021/05/20 14:39:09;;;;;;;1.25;0.85;;;;;;;;;;5076242;28;20204;-44
2021/05/20 14:41:35;;;;;;;1.52;0.75;;;;;;;;;;5066965;28;20257;-44
2021/05/20 14:44:01;;;;;;;1.35;0.82;;;;;;;;;;5056938;28;20619;-44
2021/05/20 14:46:27;;;;;;;1.98;0.90;;;;;;;;;;5067813;28;20190;-44
2021/05/20 14:48:53;;;;;;;1.77;1.50;;;;;;;;;;5057061;28;20200;-44
2021/05/20 14:51:26;;;;;;;1.73;0.90;;;;;;;;;;5071586;28;20189;-44
2021/05/20 14:54:01;;;;;;;0.88;0.70;;;;;;;;;;5060599;28;20180;-44
2021/05/20 14:56:32;;;;;;;2.03;1.02;;;;;;;;;;5061924;28;20170;-44
2021/05/20 15:07:32;;;;;;;2.47;0.70;;;;;;;;;;5014351;28;20579;-44
2021/05/20 15:10:08;;;;;;;3.53;0.95;;;;;;;;;;5020036;28;20191;-44
2021/05/20 15:12:46;;;;;;;1.15;0.90;;;;;;;;;;5045583;28;20195;-44